Time;durP1;ratioP1;P1;durP2;ratioP2;P2;SDS_P1;SDS_P2;PMS_P1;PMS_P2;Temp;Humidity;BMP_temperature;BMP_pressure;BME280_temperature;BME280_humidity;BME280_pressure;Samples;Min_cycle;Max_cycle;Signal;HPM_P1;HPM_P2
2022/01/23 00:01:44;;;;;;;;;;;7.30;99.90;;;5.26;100.00;102421.09;4983271;28;19934;-81
2022/01/23 00:04:11;;;;;;;;;;;7.30;99.90;;;5.34;100.00;102418.75;4990888;28;19969;-81
2022/01/23 00:06:38;;;;;;;;;;;7.40;99.90;;;5.42;100.00;102410.97;4990685;28;20008;-81
2022/01/23 00:09:07;;;;;;;;;;;7.30;99.90;;;5.51;100.00;102416.75;4986749;28;19929;-80
2022/01/23 00:11:39;;;;;;;;;;;7.30;99.90;;;5.44;100.00;102411.75;4982747;28;19999;-81
2022/01/23 00:19:35;;;;;;;;;;;7.30;99.90;;;5.43;100.00;102403.78;4981480;28;20392;-81
2022/01/23 00:22:03;;;;;;;;;;;7.30;99.90;;;5.49;100.00;102401.50;4987445;28;19965;-80
2022/01/23 00:32:45;;;;;;;;;;;7.20;99.90;;;5.30;100.00;102398.31;4989850;28;19922;-81
2022/01/23 00:35:12;;;;;;;;;;;7.20;99.90;;;5.32;100.00;102390.13;4985250;28;19936;-81
2022/01/23 00:37:39;;;;;;;;;;;7.30;99.90;;;5.34;100.00;102385.50;4981490;28;19925;-81
2022/01/23 00:40:08;;;;;;;;;;;7.20;99.90;;;5.36;100.00;102384.41;4988832;28;20581;-80
2022/01/23 00:42:35;;;;;;;;;;;7.20;99.90;;;5.42;100.00;102386.69;4970755;28;19989;-81
2022/01/23 00:45:18;;;;;;;;;;;7.20;99.90;;;5.39;100.00;102386.91;4980177;28;19929;-81
2022/01/23 00:47:45;;;;;;;;;;;7.30;99.90;;;5.47;100.00;102398.03;4988506;28;19921;-81
2022/01/23 00:50:12;;;;;;;;;;;7.30;99.90;;;5.53;100.00;102404.00;4989906;28;20028;-81
2022/01/23 00:52:39;;;;;;;;;;;7.20;99.90;;;5.58;100.00;102404.53;4989861;28;20437;-81
2022/01/23 00:55:08;;;;;;;;;;;7.20;99.90;;;5.53;100.00;102404.00;4986711;28;20021;-81
2022/01/23 00:57:35;;;;;;;;;;;7.20;99.90;;;5.49;100.00;102406.03;4970885;28;20017;-81
2022/01/23 01:00:05;;;;;;;;;;;7.30;99.90;;;5.48;100.00;102401.59;4984238;28;19996;-81
2022/01/23 01:02:32;;;;;;;;;;;7.30;99.90;;;5.39;100.00;102402.25;4985694;28;19992;-80
2022/01/23 01:04:59;;;;;;;;;;;7.30;99.90;;;5.34;100.00;102394.44;4969449;28;19926;-81
2022/01/23 01:07:31;;;;;;;;;;;7.20;99.90;;;5.40;100.00;102409.38;4984295;28;19926;-81
2022/01/23 01:10:01;;;;;;;;;;;7.20;99.90;;;5.41;100.00;102406.56;4989056;28;19926;-81
2022/01/23 01:12:37;;;;;;;;;;;7.30;99.90;;;5.34;100.00;102399.84;4988805;28;19925;-80
2022/01/23 01:31:56;;;;;;;;;;;7.20;99.90;;;5.30;100.00;102398.31;4992281;28;20382;-81
2022/01/23 01:34:31;;;;;;;;;;;7.30;99.90;;;5.27;100.00;102388.63;4992417;28;19926;-80
2022/01/23 01:36:58;;;;;;;;;;;7.20;99.90;;;5.32;100.00;102385.59;4991942;28;19929;-81
2022/01/23 01:39:27;;;;;;;;;;;7.20;99.90;;;5.30;100.00;102384.81;4991749;28;19968;-81
2022/01/23 01:41:55;;;;;;;;;;;7.20;99.90;;;5.27;100.00;102391.31;4993595;28;19980;-80
2022/01/23 01:44:25;;;;;;;;;;;7.20;99.90;;;5.32;100.00;102382.88;4992154;28;20216;-81
2022/01/23 01:47:15;;;;;;;;;;;7.20;99.90;;;5.30;100.00;102376.72;4988861;28;19972;-81
2022/01/23 01:49:46;;;;;;;;;;;7.20;99.90;;;5.39;100.00;102375.25;4981913;28;19922;-81
2022/01/23 01:52:13;;;;;;;;;;;7.20;99.90;;;5.41;100.00;102368.75;4993472;28;20000;-80
2022/01/23 01:54:41;;;;;;;;;;;7.20;99.90;;;5.44;100.00;102373.94;4991500;28;19921;-80
2022/01/23 01:57:17;;;;;;;;;;;7.20;99.90;;;5.48;100.00;102369.19;4990061;28;20362;-81
2022/01/23 02:00:37;;;;;;;;;;;7.20;99.90;;;5.54;100.00;102367.91;4977210;28;19969;-80
2022/01/23 02:08:57;;;;;;;;;;;7.20;99.90;;;5.32;100.00;102364.00;4979935;28;19953;-81
2022/01/23 02:11:40;;;;;;;;;;;7.20;99.90;;;5.34;100.00;102367.44;4991687;28;20545;-81
2022/01/23 02:14:24;;;;;;;;;;;7.20;99.90;;;5.32;100.00;102382.03;4972186;28;19937;-81
2022/01/23 02:17:13;;;;;;;;;;;7.20;99.90;;;5.32;100.00;102376.63;5000624;28;20398;-81
2022/01/23 02:22:55;;;;;;;;;;;7.20;99.90;;;5.26;100.00;102367.13;4956633;28;20325;-81
2022/01/23 02:53:36;;;;;;;;;;;7.10;99.90;;;5.22;100.00;102374.56;4971135;28;19922;-80
2022/01/23 02:56:15;;;;;;;;;;;7.10;99.90;;;5.20;100.00;102375.63;4971588;28;19922;-80
2022/01/23 02:58:56;;;;;;;;;;;7.10;99.90;;;5.12;100.00;102373.41;4982899;28;19978;-81
2022/01/23 03:01:27;;;;;;;;;;;7.10;99.90;;;5.13;100.00;102385.09;4990311;28;20309;-81
2022/01/23 03:04:26;;;;;;;;;;;7.10;99.90;;;5.16;100.00;102379.47;4991906;28;19921;-80
2022/01/23 03:07:20;;;;;;;;;;;7.10;99.90;;;5.16;100.00;102384.88;4988274;28;19934;-81
2022/01/23 03:09:59;;;;;;;;;;;7.20;99.90;;;5.15;100.00;102384.03;4989464;28;20691;-81
2022/01/23 03:15:42;;;;;;;;;;;7.10;99.90;;;5.27;100.00;102383.22;4970739;28;20560;-80
2022/01/23 03:26:29;;;;;;;;;;;7.10;99.90;;;5.35;100.00;102388.09;4990365;28;20666;-81
2022/01/23 03:29:18;;;;;;;;;;;7.10;99.90;;;5.40;100.00;102382.38;4989803;28;19921;-81
2022/01/23 03:31:59;;;;;;;;;;;7.10;99.90;;;5.41;100.00;102389.50;4990087;28;20736;-81
2022/01/23 03:34:27;;;;;;;;;;;7.10;99.90;;;5.35;100.00;102389.91;4986789;28;19933;-81
2022/01/23 03:36:56;;;;;;;;;;;7.10;99.90;;;5.39;100.00;102391.44;4979516;28;19926;-81
2022/01/23 03:39:24;;;;;;;;;;;7.10;99.90;;;5.39;100.00;102402.25;4989814;28;20009;-80
2022/01/23 03:41:51;;;;;;;;;;;7.10;99.90;;;5.42;100.00;102400.19;4989584;28;19957;-81
2022/01/23 03:44:22;;;;;;;;;;;7.10;99.90;;;5.39;100.00;102405.81;4989854;28;19962;-80
2022/01/23 03:47:12;;;;;;;;;;;7.10;99.90;;;5.34;100.00;102405.25;4986308;28;19926;-81
2022/01/23 03:49:38;;;;;;;;;;;7.10;99.90;;;5.37;100.00;102405.03;4983293;28;19972;-81
2022/01/23 03:52:31;;;;;;;;;;;7.00;99.90;;;5.42;100.00;102408.28;4982658;28;19929;-80
2022/01/23 03:54:58;;;;;;;;;;;7.00;99.90;;;5.43;100.00;102411.88;4984641;28;19961;-81
2022/01/23 03:57:25;;;;;;;;;;;7.10;99.90;;;5.34;100.00;102399.84;4989194;28;20325;-81
2022/01/23 03:59:54;;;;;;;;;;;7.10;99.90;;;5.38;100.00;102400.50;4985878;28;20379;-81
2022/01/23 04:02:21;;;;;;;;;;;7.10;99.90;;;5.39;100.00;102408.50;4981619;28;20361;-81
2022/01/23 04:04:48;;;;;;;;;;;7.10;99.90;;;5.45;100.00;102405.38;4990608;28;19926;-81
2022/01/23 04:07:25;;;;;;;;;;;7.00;99.90;;;5.47;100.00;102410.69;4989279;28;19929;-80
2022/01/23 04:09:53;;;;;;;;;;;7.10;99.90;;;5.46;100.00;102414.34;4988132;28;19926;-80
2022/01/23 04:12:35;;;;;;;;;;;7.10;99.90;;;5.43;100.00;102415.44;4988630;28;19926;-80
2022/01/23 04:15:12;;;;;;;;;;;7.10;99.90;;;5.42;100.00;102416.38;4988714;28;19930;-80
2022/01/23 04:20:32;;;;;;;;;;;7.10;99.90;;;5.30;100.00;102401.03;4961327;28;19934;-80
2022/01/23 04:34:15;;;;;;;;;;;7.10;99.90;;;5.33;100.00;102408.94;4989111;28;19925;-80
2022/01/23 04:45:20;;;;;;;;;;;7.10;99.90;;;5.32;100.00;102406.31;4988540;28;19926;-80
2022/01/23 05:02:02;;;;;;;;;;;7.10;99.90;;;5.37;100.00;102409.56;4946309;28;19926;-80
2022/01/23 05:04:50;;;;;;;;;;;7.10;99.90;;;5.33;100.00;102416.13;4987808;28;20285;-80
2022/01/23 05:07:39;;;;;;;;;;;7.10;99.90;;;5.38;100.00;102405.91;4989221;28;19933;-81
2022/01/23 05:10:16;;;;;;;;;;;7.10;99.90;;;5.37;100.00;102398.75;4989999;28;19932;-80
2022/01/23 05:12:49;;;;;;;;;;;7.10;99.90;;;5.36;100.00;102414.09;4972956;28;20020;-80
2022/01/23 05:15:17;;;;;;;;;;;7.10;99.90;;;5.39;100.00;102411.22;4986426;28;19961;-81
2022/01/23 05:17:44;;;;;;;;;;;7.10;99.90;;;5.39;100.00;102411.22;4988996;28;19933;-80
2022/01/23 05:20:14;;;;;;;;;;;7.10;99.90;;;5.42;100.00;102408.28;4972531;28;20547;-80
2022/01/23 05:22:45;;;;;;;;;;;7.10;99.90;;;5.45;100.00;102409.94;4986104;28;20432;-81
2022/01/23 05:25:18;;;;;;;;;;;7.10;99.90;;;5.48;100.00;102407.88;4991595;28;19922;-80
2022/01/23 05:27:46;;;;;;;;;;;7.10;99.90;;;5.44;100.00;102416.28;4993227;28;19926;-80
2022/01/23 05:30:13;;;;;;;;;;;7.10;99.90;;;5.44;100.00;102416.28;4991487;28;20378;-81
2022/01/23 05:32:42;;;;;;;;;;;7.00;99.90;;;5.44;100.00;102416.28;4991840;28;20008;-80
2022/01/23 05:35:13;;;;;;;;;;;7.00;99.90;;;5.43;100.00;102418.13;4991223;28;19929;-80
2022/01/23 05:37:41;;;;;;;;;;;7.10;99.90;;;5.44;100.00;102414.44;4991253;28;20389;-81
2022/01/23 05:40:15;;;;;;;;;;;7.10;99.90;;;5.44;100.00;102417.13;4990756;28;19928;-80
2022/01/23 05:42:44;;;;;;;;;;;7.10;99.90;;;5.38;100.00;102428.38;4991545;28;19922;-80
2022/01/23 05:45:12;;;;;;;;;;;7.10;99.90;;;5.36;100.00;102424.91;4991115;28;19925;-80
2022/01/23 05:47:58;;;;;;;;;;;7.10;99.90;;;5.33;100.00;102424.25;4983572;28;19929;-80
2022/01/23 05:50:46;;;;;;;;;;;7.10;99.90;;;5.33;100.00;102424.25;4975221;28;20227;-81
2022/01/23 05:53:31;;;;;;;;;;;7.10;99.90;;;5.35;100.00;102423.19;4993040;28;19936;-81
2022/01/23 05:56:17;;;;;;;;;;;7.10;99.90;;;5.38;100.00;102422.97;4975092;28;19933;-81
2022/01/23 05:58:57;;;;;;;;;;;7.10;99.90;;;5.43;100.00;102423.53;4975428;28;19932;-81
2022/01/23 06:01:37;;;;;;;;;;;7.10;99.90;;;5.45;100.00;102424.28;4972699;28;20378;-81
2022/01/23 06:04:13;;;;;;;;;;;7.10;99.90;;;5.48;100.00;102424.09;4973287;28;20012;-81
2022/01/23 06:06:47;;;;;;;;;;;7.00;99.90;;;5.52;100.00;102440.06;4971955;28;19977;-80
2022/01/23 06:09:15;;;;;;;;;;;7.00;99.90;;;5.52;100.00;102437.38;4983315;28;19929;-80
2022/01/23 06:11:42;;;;;;;;;;;7.10;99.90;;;5.49;100.00;102436.59;4991009;28;19971;-80
2022/01/23 06:14:10;;;;;;;;;;;7.10;99.90;;;5.48;100.00;102428.59;4991459;28;20084;-80
2022/01/23 06:16:37;;;;;;;;;;;7.10;99.90;;;5.49;100.00;102424.94;4989406;28;19976;-80
2022/01/23 06:19:23;;;;;;;;;;;7.10;99.90;;;5.48;100.00;102434.00;4986583;28;19945;-80
2022/01/23 06:22:11;;;;;;;;;;;7.10;99.90;;;5.47;100.00;102433.16;4973298;28;20444;-80
2022/01/23 06:24:57;;;;;;;;;;;7.10;99.90;;;5.37;100.00;102442.84;4992104;28;19932;-80
2022/01/23 06:27:39;;;;;;;;;;;7.10;99.90;;;5.41;100.00;102441.66;4991619;28;19929;-80
2022/01/23 06:30:08;;;;;;;;;;;7.10;99.90;;;5.44;100.00;102438.75;4989974;28;19926;-80
2022/01/23 06:32:35;;;;;;;;;;;7.10;99.90;;;5.48;100.00;102442.09;4990766;28;20316;-80
2022/01/23 06:35:03;;;;;;;;;;;7.10;99.90;;;5.48;100.00;102434.00;4991694;28;20032;-80
2022/01/23 06:37:31;;;;;;;;;;;7.10;99.90;;;5.38;100.00;102443.72;4986969;28;20008;-81
2022/01/23 06:39:58;;;;;;;;;;;7.10;99.90;;;5.38;100.00;102449.97;4971049;28;20406;-80
2022/01/23 06:42:45;;;;;;;;;;;7.20;99.90;;;5.44;100.00;102449.53;4978688;28;19930;-80
2022/01/23 06:45:32;;;;;;;;;;;7.20;99.90;;;5.43;100.00;102437.03;4980698;28;20424;-80
2022/01/23 06:47:59;;;;;;;;;;;7.20;99.90;;;5.33;100.00;102441.31;4990455;28;19948;-80
2022/01/23 06:50:26;;;;;;;;;;;7.20;99.90;;;5.31;100.00;102443.22;4989743;28;19925;-80
2022/01/23 06:52:55;;;;;;;;;;;7.20;99.90;;;5.31;100.00;102445.94;4980813;28;19922;-80
2022/01/23 06:55:22;;;;;;;;;;;7.20;99.90;;;5.27;100.00;102439.00;4970936;28;19926;-80
2022/01/23 06:57:52;;;;;;;;;;;7.20;99.90;;;5.23;100.00;102441.06;4975463;28;20687;-81
2022/01/23 07:00:19;;;;;;;;;;;7.20;99.90;;;5.30;100.00;102441.53;4989829;28;19925;-80
2022/01/23 07:02:59;;;;;;;;;;;7.10;99.90;;;5.32;100.00;102447.69;4991107;28;20290;-80
2022/01/23 07:06:05;;;;;;;;;;;7.10;99.90;;;5.31;100.00;102447.78;4962095;28;19923;-80
2022/01/23 07:08:50;;;;;;;;;;;7.10;99.90;;;5.25;100.00;102449.94;4949691;29;20323;-80
2022/01/23 07:11:36;;;;;;;;;;;7.10;99.90;;;5.26;100.00;102458.91;4966900;28;20012;-80
2022/01/23 07:14:26;;;;;;;;;;;7.20;99.90;;;5.26;100.00;102457.06;4990294;28;19925;-80
2022/01/23 07:17:15;;;;;;;;;;;7.20;99.90;;;5.22;100.00;102460.06;4984761;28;20017;-80
2022/01/23 07:19:51;;;;;;;;;;;7.10;99.90;;;5.23;100.00;102468.03;4977337;28;20349;-80
2022/01/23 07:22:27;;;;;;;;;;;7.10;99.90;;;5.25;100.00;102467.94;4989940;28;19932;-80
2022/01/23 07:25:00;;;;;;;;;;;7.10;99.90;;;5.23;100.00;102475.28;4988115;28;19921;-80
2022/01/23 07:27:30;;;;;;;;;;;7.10;99.90;;;5.27;100.00;102479.50;4970101;28;19926;-80
2022/01/23 07:29:57;;;;;;;;;;;7.10;99.90;;;5.29;100.00;102482.97;4977692;28;19926;-80
2022/01/23 07:32:24;;;;;;;;;;;7.10;99.90;;;5.28;100.00;102494.75;4989812;28;19960;-80
2022/01/23 07:34:51;;;;;;;;;;;7.10;99.90;;;5.35;100.00;102493.38;4989312;28;20419;-80
2022/01/23 07:37:21;;;;;;;;;;;7.10;99.90;;;5.34;100.00;102486.25;4986060;28;19926;-81
2022/01/23 07:40:09;;;;;;;;;;;7.10;99.90;;;5.40;100.00;102491.22;4989079;28;20378;-83
2022/01/23 07:42:41;;;;;;;;;;;7.10;99.90;;;5.39;100.00;102484.09;5005908;28;19925;-82
2022/01/23 07:45:27;;;;;;;;;;;7.10;99.90;;;5.43;100.00;102485.63;4982274;28;19933;-85
2022/01/23 07:48:20;;;;;;;;;;;7.10;99.90;;;5.41;100.00;102492.13;4972020;28;19973;-84
2022/01/23 07:50:58;;;;;;;;;;;7.20;99.90;;;5.44;100.00;102492.75;4980815;28;19926;-86
2022/01/23 07:54:01;;;;;;;;;;;7.10;99.90;;;5.47;100.00;102494.41;4968552;28;19930;-85
2022/01/23 07:56:42;;;;;;;;;;;7.10;99.90;;;5.45;100.00;102505.28;4977899;28;19948;-85
2022/01/23 07:59:27;;;;;;;;;;;7.10;99.90;;;5.41;100.00;102501.06;4988032;28;19980;-85
2022/01/23 08:02:10;;;;;;;;;;;7.10;99.90;;;5.39;100.00;102492.22;4989182;28;19922;-85
2022/01/23 08:04:40;;;;;;;;;;;7.10;99.90;;;5.44;100.00;102491.88;4986280;28;19929;-85
2022/01/23 08:07:12;;;;;;;;;;;7.10;99.90;;;5.39;100.00;102494.91;4985996;28;19925;-85
2022/01/23 08:09:55;;;;;;;;;;;7.20;99.90;;;5.40;100.00;102493.91;4988574;28;19925;-85
2022/01/23 08:12:23;;;;;;;;;;;7.20;99.90;;;5.42;100.00;102500.09;4990239;28;19977;-86
2022/01/23 08:14:50;;;;;;;;;;;7.20;99.90;;;5.44;100.00;102503.53;4976044;28;20322;-85
2022/01/23 08:17:19;;;;;;;;;;;7.20;99.90;;;5.35;100.00;102509.59;4969341;28;20283;-85
2022/01/23 08:19:46;;;;;;;;;;;7.20;99.90;;;5.40;100.00;102504.72;4983232;28;19922;-85
2022/01/23 08:22:13;;;;;;;;;;;7.20;99.90;;;5.38;100.00;102509.38;4988796;28;19953;-84
2022/01/23 08:24:40;;;;;;;;;;;7.20;99.90;;;5.41;100.00;102514.56;4977476;28;19965;-85
2022/01/23 08:27:07;;;;;;;;;;;7.20;99.90;;;5.40;100.00;102512.81;4970681;28;19973;-85
2022/01/23 08:29:36;;;;;;;;;;;7.20;99.90;;;5.41;100.00;102516.41;4981332;28;20452;-84
2022/01/23 08:32:03;;;;;;;;;;;7.20;99.90;;;5.46;100.00;102515.16;4988624;28;19957;-85
2022/01/23 08:34:30;;;;;;;;;;;7.20;99.90;;;5.51;100.00;102524.75;4988522;28;19922;-85
2022/01/23 08:36:57;;;;;;;;;;;7.10;99.90;;;5.51;100.00;102524.75;4988763;28;20020;-84
2022/01/23 08:39:26;;;;;;;;;;;7.20;99.90;;;5.52;100.00;102531.88;4987423;28;20016;-85
2022/01/23 08:41:53;;;;;;;;;;;7.20;99.90;;;5.51;100.00;102531.03;4990029;28;19925;-86
2022/01/23 08:44:21;;;;;;;;;;;7.20;99.90;;;5.47;100.00;102529.50;4988392;28;20012;-86
2022/01/23 08:46:50;;;;;;;;;;;7.20;99.90;;;5.52;100.00;102534.59;4988483;28;20048;-86
2022/01/23 08:49:19;;;;;;;;;;;7.20;99.90;;;5.53;100.00;102542.59;4987991;28;19957;-84
2022/01/23 08:51:47;;;;;;;;;;;7.20;99.90;;;5.50;100.00;102548.19;4973342;28;19928;-86
2022/01/23 08:54:14;;;;;;;;;;;7.20;99.90;;;5.48;100.00;102545.59;4976493;28;19961;-86
2022/01/23 08:56:41;;;;;;;;;;;7.20;99.90;;;5.49;100.00;102541.94;4988509;28;19925;-85
2022/01/23 08:59:12;;;;;;;;;;;7.20;99.90;;;5.45;100.00;102539.53;4982678;28;19922;-85
2022/01/23 09:01:39;;;;;;;;;;;7.30;99.90;;;5.36;100.00;102545.53;4970396;28;19965;-85
2022/01/23 09:04:08;;;;;;;;;;;7.30;99.90;;;5.40;100.00;102539.81;4974861;28;19922;-86
2022/01/23 09:06:35;;;;;;;;;;;7.30;99.90;;;5.39;100.00;102543.50;4982919;28;19922;-87
2022/01/23 09:09:04;;;;;;;;;;;7.30;99.90;;;5.49;100.00;102532.97;4972414;28;20013;-88
2022/01/23 09:11:41;;;;;;;;;;;7.30;99.90;;;5.56;100.00;102534.28;4988317;28;19929;-87
2022/01/23 09:14:10;;;;;;;;;;;7.40;99.90;;;5.60;100.00;102540.38;4985338;28;20013;-87
2022/01/23 09:16:38;;;;;;;;;;;7.40;99.90;;;5.64;100.00;102552.69;4968943;28;19926;-85
2022/01/23 09:19:07;;;;;;;;;;;7.40;99.90;;;5.62;100.00;102541.13;4970642;28;20443;-85
2022/01/23 09:21:34;;;;;;;;;;;7.50;99.90;;;5.56;100.00;102544.22;4977249;28;19926;-85
2022/01/23 09:24:02;;;;;;;;;;;7.40;99.90;;;5.61;100.00;102539.38;4986433;28;19926;-85
2022/01/23 09:26:30;;;;;;;;;;;7.50;99.90;;;5.65;100.00;102538.19;4982418;28;19926;-85
2022/01/23 09:29:00;;;;;;;;;;;7.50;99.90;;;5.60;100.00;102541.22;4968474;28;20386;-85
2022/01/23 09:31:30;;;;;;;;;;;7.50;99.90;;;5.63;100.00;102529.34;4974768;28;19925;-85
2022/01/23 09:33:57;;;;;;;;;;;7.50;99.90;;;5.74;100.00;102537.59;4988142;28;19925;-85
2022/01/23 09:36:26;;;;;;;;;;;7.50;99.90;;;5.65;100.00;102538.19;4977904;28;19945;-85
2022/01/23 09:38:53;;;;;;;;;;;7.50;99.90;;;5.67;100.00;102538.97;4987806;28;20222;-86
2022/01/23 09:41:23;;;;;;;;;;;7.50;99.90;;;5.68;100.00;102543.41;4974552;28;20016;-84
2022/01/23 09:43:52;;;;;;;;;;;7.50;99.90;;;5.73;100.00;102541.28;4989163;28;19922;-84
2022/01/23 09:46:19;;;;;;;;;;;7.60;99.90;;;5.76;100.00;102548.28;4984075;28;19929;-79
2022/01/23 09:48:48;;;;;;;;;;;7.60;99.90;;;5.81;100.00;102547.03;4988358;28;19922;-82
2022/01/23 09:51:16;;;;;;;;;;;7.60;99.90;;;5.74;100.00;102548.41;4987556;28;20012;-87
2022/01/23 09:53:45;;;;;;;;;;;7.60;99.90;;;5.72;100.00;102558.44;4980720;28;19926;-84
2022/01/23 09:56:14;;;;;;;;;;;7.60;99.90;;;5.73;100.00;102546.69;4979368;28;20443;-85
2022/01/23 09:58:42;;;;;;;;;;;7.60;99.90;;;5.76;100.00;102559.97;4992321;28;19929;-85
2022/01/23 10:01:11;;;;;;;;;;;7.60;99.90;;;5.83;100.00;102558.59;4990010;28;19933;-85
2022/01/23 10:03:38;;;;;;;;;;;7.60;99.90;;;5.82;100.00;102559.53;4973044;28;19933;-85
2022/01/23 10:06:08;;;;;;;;;;;7.70;99.90;;;5.84;100.00;102552.19;4977232;28;20349;-85
2022/01/23 10:08:36;;;;;;;;;;;7.70;99.90;;;5.88;100.00;102553.75;4990895;28;20390;-85
2022/01/23 10:11:09;;;;;;;;;;;7.70;99.90;;;5.93;100.00;102549.88;4991009;28;19925;-85
2022/01/23 10:13:37;;;;;;;;;;;7.70;99.90;;;5.99;100.00;102553.03;4991132;28;20027;-86
2022/01/23 10:16:04;;;;;;;;;;;7.70;99.90;;;6.02;100.00;102551.97;4988141;28;20445;-84
2022/01/23 10:18:32;;;;;;;;;;;7.70;99.90;;;6.09;100.00;102555.97;5007027;28;19933;-84
2022/01/23 10:20:59;;;;;;;;;;;7.80;99.90;;;6.13;100.00;102554.81;4992570;28;19936;-84
2022/01/23 10:23:27;;;;;;;;;;;7.80;99.90;;;6.10;100.00;102554.16;4991097;28;19921;-84
2022/01/23 10:26:01;;;;;;;;;;;7.80;99.90;;;5.95;100.00;102559.63;4988866;28;20294;-87
2022/01/23 10:28:31;;;;;;;;;;;7.80;99.90;;;5.94;100.00;102562.38;4992077;28;19955;-85
2022/01/23 10:31:02;;;;;;;;;;;7.80;99.90;;;6.01;100.00;102561.91;4992344;28;19926;-85
2022/01/23 10:33:31;;;;;;;;;;;7.80;99.90;;;6.09;100.00;102569.50;4980231;28;20312;-86
2022/01/23 10:36:04;;;;;;;;;;;7.80;99.90;;;6.07;100.00;102566.03;4973642;28;19933;-85
2022/01/23 10:38:33;;;;;;;;;;;7.80;99.90;;;6.09;100.00;102574.03;4972433;28;20350;-86
2022/01/23 10:41:24;;;;;;;;;;;7.80;99.90;;;6.16;100.00;102565.41;4972637;28;19926;-86
2022/01/23 10:47:34;;;;;;;;;;;7.90;99.90;;;6.30;100.00;102564.44;4984362;28;20001;-86
2022/01/23 10:50:04;;;;;;;;;;;7.80;99.90;;;6.33;100.00;102560.69;4990268;28;19955;-86
2022/01/23 10:52:33;;;;;;;;;;;7.90;99.90;;;6.31;100.00;102552.66;4991904;28;19972;-86
2022/01/23 10:55:01;;;;;;;;;;;7.80;99.90;;;6.24;100.00;102551.34;4990407;28;19932;-86
2022/01/23 10:57:35;;;;;;;;;;;7.90;99.90;;;6.22;100.00;102548.75;4974631;28;20032;-86
2022/01/23 11:00:06;;;;;;;;;;;7.90;99.90;;;6.20;100.00;102548.00;4970612;28;19922;-86
2022/01/23 11:02:33;;;;;;;;;;;7.90;99.90;;;6.18;100.00;102551.78;4970318;28;19965;-86
2022/01/23 11:05:04;;;;;;;;;;;8.00;99.90;;;6.18;100.00;102549.94;4972211;28;20019;-86
2022/01/23 11:07:32;;;;;;;;;;;8.00;99.90;;;6.20;100.00;102548.00;4988398;28;19933;-86
2022/01/23 11:10:02;;;;;;;;;;;8.00;99.90;;;6.16;100.00;102542.91;5006175;28;20592;-85
2022/01/23 11:18:01;;;;;;;;;;;8.10;99.90;;;6.29;100.00;102537.53;4989908;23;19933;-81
2022/01/23 11:20:31;;;;;;;;;;;8.00;99.90;;;6.22;100.00;102537.94;4991026;28;19925;-81
2022/01/23 11:23:03;;;;;;;;;;;8.10;99.90;;;6.27;100.00;102532.22;4991359;28;20032;-82
2022/01/23 11:25:30;;;;;;;;;;;8.10;99.90;;;6.35;100.00;102537.09;4988010;28;19988;-82
2022/01/23 11:28:03;;;;;;;;;;;8.10;99.90;;;6.37;100.00;102530.59;4984304;28;19977;-82
2022/01/23 11:30:39;;;;;;;;;;;8.10;99.90;;;6.46;100.00;102527.25;4971778;28;19926;-81
2022/01/23 11:33:10;;;;;;;;;;;8.30;99.90;;;6.51;100.00;102526.06;4971947;28;19922;-81
2022/01/23 11:35:38;;;;;;;;;;;8.20;99.90;;;6.56;100.00;102522.06;4968341;28;19930;-81
2022/01/23 11:38:10;;;;;;;;;;;8.10;99.90;;;6.54;100.00;102526.72;4971500;28;19968;-81
2022/01/23 11:50:36;;;;;;;;;;;8.20;99.90;;;6.56;100.00;102521.19;4971749;28;19922;-82
2022/01/23 11:55:00;;;;;;;;;;;8.30;99.90;;;6.58;100.00;102517.41;4952547;28;19934;-82
2022/01/23 11:57:40;;;;;;;;;;;8.30;99.90;;;6.51;100.00;102507.13;4954746;28;19926;-82
2022/01/23 12:00:14;;;;;;;;;;;8.30;99.90;;;6.46;100.00;102512.88;4950536;28;20354;-82
2022/01/23 12:02:44;;;;;;;;;;;8.30;99.90;;;6.43;100.00;102523.91;4952184;28;19933;-82
2022/01/23 12:05:23;;;;;;;;;;;8.30;99.90;;;6.47;100.00;102520.00;4951273;28;20401;-82
2022/01/23 12:08:14;;;;;;;;;;;8.40;99.90;;;6.54;100.00;102515.03;4970125;28;19977;-82
2022/01/23 12:10:53;;;;;;;;;;;8.50;99.90;;;6.55;100.00;102506.81;4965508;28;19925;-82
2022/01/23 12:13:54;;;;;;;;;;;8.30;99.90;;;6.50;100.00;102505.41;4971022;28;19973;-81
2022/01/23 12:16:26;;;;;;;;;;;8.30;99.90;;;6.59;100.00;102505.63;4967101;28;19932;-82
2022/01/23 12:19:19;;;;;;;;;;;8.40;99.90;;;6.68;100.00;102495.09;4958240;28;20298;-88
2022/01/23 12:21:47;;;;;;;;;;;8.20;99.90;;;6.56;100.00;102497.72;4971089;28;19961;-84
2022/01/23 12:24:20;;;;;;;;;;;8.40;99.90;;;6.62;100.00;102491.00;4970707;28;19981;-87
2022/01/23 12:26:51;;;;;;;;;;;8.40;99.90;;;6.75;100.00;102494.53;4960165;28;20382;-87
2022/01/23 12:29:26;;;;;;;;;;;8.40;99.90;;;6.76;100.00;102496.28;4966936;28;19929;-86
2022/01/23 12:32:16;;;;;;;;;;;8.40;99.90;;;6.80;100.00;102494.22;4958381;28;19930;-86
2022/01/23 12:34:50;;;;;;;;;;;8.40;99.90;;;6.73;100.00;102493.78;4967465;28;19973;-87
2022/01/23 12:37:19;;;;;;;;;;;8.40;99.90;;;6.66;100.00;102484.38;4964155;28;20021;-89
2022/01/23 12:40:06;;;;;;;;;;;8.40;99.90;;;6.67;100.00;102477.16;4961519;28;19922;-87
2022/01/23 12:43:05;;;;;;;;;;;8.40;99.90;;;6.75;100.00;102482.88;4959376;28;20061;-87
2022/01/23 12:45:52;;;;;;;;;;;8.40;99.90;;;6.72;100.00;102485.78;4964327;28;19937;-87
2022/01/23 12:48:43;;;;;;;;;;;8.40;99.90;;;6.68;100.00;102486.97;4951169;28;19929;-86
2022/01/23 12:51:41;;;;;;;;;;;8.40;99.90;;;6.77;100.00;102483.63;4950563;28;19930;-87
2022/01/23 12:54:18;;;;;;;;;;;8.40;99.90;;;6.77;100.00;102489.03;4966405;28;19922;-87
2022/01/23 12:56:48;;;;;;;;;;;8.40;99.90;;;6.59;100.00;102483.13;4961925;28;20409;-87
2022/01/23 12:59:23;;;;;;;;;;;8.40;99.90;;;6.64;100.00;102478.22;4969842;28;19949;-88
2022/01/23 13:01:59;;;;;;;;;;;8.40;99.90;;;6.75;100.00;102480.16;4951298;28;20449;-87
2022/01/23 13:04:35;;;;;;;;;;;8.40;99.90;;;6.69;100.00;102488.72;4966261;28;20007;-87
2022/01/23 13:07:11;;;;;;;;;;;8.40;99.90;;;6.81;100.00;102485.13;4952593;28;19934;-89
2022/01/23 13:09:45;;;;;;;;;;;8.40;99.90;;;6.84;100.00;102479.50;4963352;28;19926;-88
2022/01/23 13:12:17;;;;;;;;;;;8.50;99.90;;;6.83;100.00;102473.22;4963848;28;20484;-85
2022/01/23 13:14:56;;;;;;;;;;;8.40;99.90;;;6.84;100.00;102479.50;4961475;28;19926;-86
2022/01/23 13:17:44;;;;;;;;;;;8.40;99.90;;;6.73;100.00;102474.00;4960718;28;19937;-85
2022/01/23 13:31:38;;;;;;;;;;;8.40;99.90;;;6.71;100.00;102465.13;4973345;28;19926;-88
2022/01/23 13:34:19;;;;;;;;;;;8.40;99.90;;;6.80;100.00;102472.59;4974237;28;20634;-89
2022/01/23 13:36:54;;;;;;;;;;;8.40;99.90;;;6.83;100.00;102477.75;4964549;28;20012;-85
2022/01/23 13:39:24;;;;;;;;;;;8.40;99.90;;;6.78;100.00;102477.25;4968497;28;20456;-85
2022/01/23 13:42:11;;;;;;;;;;;8.40;99.90;;;6.83;100.00;102478.63;4966606;28;19981;-90
2022/01/23 13:53:09;;;;;;;;;;;8.40;99.90;;;6.95;100.00;102470.56;4969329;28;19962;-85
2022/01/23 13:58:36;;;;;;;;;;;8.40;99.90;;;6.86;100.00;102469.41;4911907;28;20018;-88
2022/01/23 14:01:19;;;;;;;;;;;8.40;99.90;;;6.75;100.00;102474.75;4957385;28;19933;-87
2022/01/23 14:03:46;;;;;;;;;;;8.40;99.90;;;6.82;100.00;102473.34;4962902;28;19949;-89
2022/01/23 14:06:14;;;;;;;;;;;8.40;99.90;;;6.85;100.00;102470.38;4970021;28;19925;-89
2022/01/23 14:08:41;;;;;;;;;;;8.40;99.90;;;6.76;100.00;102471.03;4972833;28;19979;-93
2022/01/23 14:11:11;;;;;;;;;;;8.50;99.90;;;6.83;100.00;102466.94;4974198;28;19929;-86
2022/01/23 14:13:38;;;;;;;;;;;8.40;99.90;;;6.88;100.00;102470.16;4969403;28;19977;-89
2022/01/23 14:16:06;;;;;;;;;;;8.40;99.90;;;6.83;100.00;102472.34;4961742;28;19941;-88
2022/01/23 14:18:33;;;;;;;;;;;8.40;99.90;;;6.77;100.00;102462.81;4959418;28;19937;-88
2022/01/23 14:21:04;;;;;;;;;;;8.40;99.90;;;6.74;100.00;102456.78;4972391;28;20023;-90
2022/01/23 14:23:33;;;;;;;;;;;8.40;99.90;;;6.82;100.00;102465.22;4973056;28;20317;-88
2022/01/23 14:26:07;;;;;;;;;;;8.40;99.90;;;6.85;100.00;102460.44;4967036;28;19930;-88